createdAt,value
2023-06-26T00:01:23.998Z,101393.88
2023-06-26T00:04:27.838Z,101394.88
2023-06-26T00:07:32.217Z,101387.81
2023-06-26T00:10:36.933Z,101389.72
2023-06-26T00:13:43.028Z,101382.88
2023-06-26T00:16:46.706Z,101384.38
2023-06-26T00:19:50.590Z,101377.44
2023-06-26T00:22:54.967Z,101378.44
2023-06-26T00:25:58.702Z,101372.22
2023-06-26T00:29:03.764Z,101377.16
2023-06-26T00:32:09.068Z,101373.50
2023-06-26T00:35:12.793Z,101380.00
2023-06-26T00:38:16.981Z,101376.59
2023-06-26T00:41:20.942Z,101376.28
2023-06-26T00:44:26.084Z,101373.81
2023-06-26T00:47:30.094Z,101380.75
2023-06-26T00:50:34.277Z,101381.13
2023-06-26T00:53:38.508Z,101367.81
2023-06-26T00:56:43.442Z,101369.75
2023-06-26T00:59:49.198Z,101362.13
2023-06-26T01:02:53.127Z,101356.88
2023-06-26T01:06:00.436Z,101359.44
2023-06-26T01:09:05.172Z,101349.00
2023-06-26T01:12:09.355Z,101352.94
2023-06-26T01:15:14.856Z,101353.34
2023-06-26T01:18:18.707Z,101340.16
2023-06-26T01:21:22.613Z,101323.28
2023-06-26T01:24:37.877Z,101335.00
2023-06-26T01:27:44.944Z,101336.38
2023-06-26T01:30:50.590Z,101326.13
2023-06-26T01:33:55.341Z,101329.00
2023-06-26T01:36:59.026Z,101331.31
2023-06-26T01:40:06.508Z,101326.84
2023-06-26T01:43:20.892Z,101327.16
2023-06-26T01:46:29.763Z,101321.06
2023-06-26T01:49:49.719Z,101312.31
2023-06-26T01:53:07.217Z,101307.75
2023-06-26T01:56:18.014Z,101304.22
2023-06-26T01:59:24.845Z,101304.66
2023-06-26T02:02:30.915Z,101303.88
2023-06-26T02:05:34.942Z,101302.28
2023-06-26T02:08:39.027Z,101299.81
2023-06-26T02:11:42.734Z,101292.78
2023-06-26T02:14:47.895Z,101299.47
2023-06-26T02:17:51.660Z,101286.91
2023-06-26T02:20:55.407Z,101285.41
2023-06-26T02:23:59.183Z,101282.66
2023-06-26T02:27:02.867Z,101287.72
2023-06-26T02:30:11.015Z,101283.91
2023-06-26T02:33:14.790Z,101275.47
2023-06-26T02:36:18.789Z,101265.66
2023-06-26T02:39:22.782Z,101266.63
2023-06-26T02:42:26.615Z,101252.34
2023-06-26T02:45:31.775Z,101253.31
2023-06-26T02:48:35.680Z,101263.38
2023-06-26T02:51:39.435Z,101254.66
2023-06-26T02:54:43.232Z,101255.38
2023-06-26T02:57:46.979Z,101254.66
2023-06-26T03:00:52.321Z,101250.59
2023-06-26T03:03:57.216Z,101244.38
2023-06-26T03:07:01.154Z,101246.31
2023-06-26T03:10:04.965Z,101232.81
2023-06-26T03:13:08.764Z,101230.31
2023-06-26T03:16:13.979Z,101222.63
2023-06-26T03:19:17.683Z,101222.81
2023-06-26T03:22:21.372Z,101210.16
2023-06-26T03:25:25.187Z,101225.28
2023-06-26T03:28:30.029Z,101215.47
2023-06-26T03:31:35.774Z,101219.41
2023-06-26T03:34:40.627Z,101217.56
2023-06-26T03:37:44.456Z,101215.31
2023-06-26T03:40:48.280Z,101211.69
2023-06-26T03:43:52.131Z,101197.91
2023-06-26T03:46:57.304Z,101186.63
2023-06-26T03:50:00.968Z,101157.69
2023-06-26T03:53:04.743Z,101135.88
2023-06-26T03:56:08.484Z,101139.47
2023-06-26T03:59:12.958Z,101134.91
2023-06-26T04:02:18.134Z,101130.50
2023-06-26T04:05:21.991Z,101133.09
2023-06-26T04:08:27.898Z,101141.31
2023-06-26T04:11:32.267Z,101133.44
2023-06-26T04:14:36.087Z,101140.78
2023-06-26T04:17:41.206Z,101129.69
2023-06-26T04:21:09.864Z,101141.63
2023-06-26T04:24:15.622Z,101123.59
2023-06-26T04:27:19.917Z,101115.94
2023-06-26T04:30:23.875Z,101122.28
2023-06-26T04:33:29.597Z,101119.34
2023-06-26T04:36:34.568Z,101115.91
2023-06-26T04:39:39.466Z,101098.50
2023-06-26T04:42:43.218Z,101097.00
2023-06-26T04:45:47.153Z,101085.69
2023-06-26T04:48:52.301Z,101083.19
2023-06-26T04:51:56.736Z,101086.72
2023-06-26T04:55:00.495Z,101087.16
2023-06-26T04:58:04.595Z,101076.69
2023-06-26T05:01:09.167Z,101088.69
2023-06-26T05:04:14.470Z,101088.31
2023-06-26T05:07:18.193Z,101080.19
2023-06-26T05:10:22.798Z,101095.31
2023-06-26T05:13:27.202Z,101093.50
2023-06-26T05:16:31.002Z,101079.00
2023-06-26T05:19:36.340Z,101066.25
2023-06-26T05:22:41.680Z,101063.34
2023-06-26T05:25:46.184Z,101057.84
2023-06-26T05:28:52.222Z,101048.25
2023-06-26T05:31:58.318Z,101059.59
2023-06-26T05:35:06.223Z,101039.00
2023-06-26T05:38:10.668Z,101038.34
2023-06-26T05:41:15.358Z,101035.22
2023-06-26T05:44:19.173Z,101029.16
2023-06-26T05:47:23.168Z,101058.06
2023-06-26T05:50:30.422Z,101055.72
2023-06-26T05:53:34.781Z,101049.00
2023-06-26T05:56:41.003Z,101049.44
2023-06-26T05:59:47.124Z,101047.59
2023-06-26T06:02:55.648Z,101037.88
2023-06-26T06:06:00.880Z,101023.44
2023-06-26T06:09:04.741Z,101038.00
2023-06-26T06:12:09.899Z,101042.53
2023-06-26T06:15:13.730Z,101037.88
2023-06-26T06:18:17.569Z,101050.00
2023-06-26T06:21:22.914Z,101035.03
2023-06-26T06:24:26.637Z,101034.63
2023-06-26T06:27:30.531Z,101044.69
2023-06-26T06:33:45.068Z,101032.63
2023-06-26T06:36:51.124Z,101029.81
2023-06-26T06:39:55.132Z,101037.75
2023-06-26T06:42:58.862Z,101040.47
2023-06-26T06:46:02.614Z,101037.34
2023-06-26T06:49:06.824Z,101037.41
2023-06-26T06:52:12.036Z,101049.41
2023-06-26T06:55:15.712Z,101053.09
2023-06-26T06:58:21.291Z,101049.16
2023-06-26T07:01:24.951Z,101049.66
2023-06-26T07:04:28.825Z,101040.16
2023-06-26T07:07:36.110Z,101039.44
2023-06-26T07:10:40.098Z,101042.91
2023-06-26T07:13:46.283Z,101030.75
2023-06-26T07:16:50.121Z,101045.38
2023-06-26T07:19:54.040Z,101049.47
2023-06-26T07:22:59.287Z,101031.78
2023-06-26T07:26:03.107Z,101052.25
2023-06-26T07:29:07.134Z,101058.84
2023-06-26T07:32:13.166Z,101073.06
2023-06-26T07:35:21.585Z,101084.34
2023-06-26T07:38:26.724Z,101088.31
2023-06-26T07:41:32.534Z,101085.94
2023-06-26T07:44:36.360Z,101085.38
2023-06-26T07:47:40.951Z,101078.59
2023-06-26T07:50:44.704Z,101078.19
2023-06-26T07:53:50.035Z,101070.63
2023-06-26T07:56:59.415Z,101073.53
2023-06-26T08:00:03.315Z,101082.31
2023-06-26T08:03:10.579Z,101105.16
2023-06-26T08:06:16.730Z,101119.84
2023-06-26T08:09:24.638Z,101152.22
2023-06-26T08:12:28.429Z,101168.25
2023-06-26T08:15:36.841Z,101157.09
2023-06-26T08:18:40.589Z,101155.59
2023-06-26T08:21:45.658Z,101155.09
2023-06-26T08:24:50.752Z,101144.88
2023-06-26T08:27:55.207Z,101151.50
2023-06-26T08:30:58.963Z,101150.63
2023-06-26T08:34:02.892Z,101180.50
2023-06-26T08:37:10.544Z,101191.34
2023-06-26T08:40:19.328Z,101211.84
2023-06-26T08:43:24.469Z,101226.34
2023-06-26T08:46:28.719Z,101236.16
2023-06-26T08:49:45.397Z,101262.63
2023-06-26T08:52:57.049Z,101277.75
2023-06-26T08:56:05.697Z,101272.63
2023-06-26T08:59:11.408Z,101278.16
2023-06-26T09:02:15.891Z,101279.44
2023-06-26T09:05:20.350Z,101296.56
2023-06-26T09:08:24.195Z,101286.72
2023-06-26T09:11:29.610Z,101285.28
2023-06-26T09:14:33.539Z,101296.03
2023-06-26T09:17:42.908Z,101311.44
2023-06-26T09:20:47.224Z,101318.69
2023-06-26T09:23:51.971Z,101321.25
2023-06-26T09:26:57.255Z,101322.00
2023-06-26T09:30:01.810Z,101307.88
2023-06-26T09:33:18.151Z,101317.41
2023-06-26T09:36:23.332Z,101328.00
2023-06-26T09:39:27.564Z,101323.03
2023-06-26T09:42:33.172Z,101319.56
2023-06-26T09:45:38.597Z,101328.78
2023-06-26T09:48:42.364Z,101326.03
2023-06-26T09:51:46.213Z,101330.66
2023-06-26T09:54:50.799Z,101330.59
2023-06-26T09:58:04.598Z,101324.56
2023-06-26T10:01:10.851Z,101343.66
2023-06-26T10:04:15.603Z,101322.59
2023-06-26T10:07:20.522Z,101326.97
2023-06-26T10:10:27.078Z,101347.72
2023-06-26T10:13:40.938Z,101340.25
2023-06-26T10:16:47.093Z,101337.19
2023-06-26T10:19:52.657Z,101335.75
2023-06-26T10:23:02.492Z,101344.13
2023-06-26T10:26:10.102Z,101342.38
2023-06-26T10:29:19.839Z,101344.84
2023-06-26T10:32:27.892Z,101351.50
2023-06-26T10:35:33.605Z,101342.47
2023-06-26T10:38:53.139Z,101353.88
2023-06-26T10:42:11.828Z,101336.56
2023-06-26T10:45:21.850Z,101350.34
2023-06-26T10:48:31.699Z,101365.28
2023-06-26T10:51:35.453Z,101372.28
2023-06-26T10:54:41.360Z,101374.22
2023-06-26T10:57:50.511Z,101384.50
2023-06-26T11:01:23.559Z,101375.50
2023-06-26T11:04:42.746Z,101379.56
2023-06-26T11:08:06.718Z,101380.91
2023-06-26T11:11:10.575Z,101406.63
2023-06-26T11:14:14.956Z,101412.19
2023-06-26T11:17:22.058Z,101408.31
2023-06-26T11:20:25.997Z,101402.69
2023-06-26T11:23:30.292Z,101414.59
2023-06-26T11:26:40.454Z,101413.41
2023-06-26T11:29:51.008Z,101411.50
2023-06-26T11:33:05.357Z,101405.72
2023-06-26T11:36:12.361Z,101398.69
2023-06-26T11:39:16.113Z,101415.47
2023-06-26T11:42:20.107Z,101411.31
2023-06-26T11:45:35.246Z,101405.47
2023-06-26T11:48:41.531Z,101408.63
2023-06-26T11:51:49.231Z,101417.66
2023-06-26T11:54:53.031Z,101418.88
2023-06-26T11:58:00.015Z,101417.41
2023-06-26T12:01:03.980Z,101424.47
2023-06-26T12:04:18.264Z,101430.53
2023-06-26T12:07:25.263Z,101422.47
2023-06-26T12:10:31.064Z,101442.09
2023-06-26T12:13:36.921Z,101431.50
2023-06-26T12:16:41.881Z,101440.88
2023-06-26T12:19:50.864Z,101443.44
2023-06-26T12:22:54.758Z,101444.44
2023-06-26T12:25:58.432Z,101436.75
2023-06-26T12:29:07.340Z,101430.81
2023-06-26T12:32:12.885Z,101437.34
2023-06-26T12:35:18.375Z,101436.66
2023-06-26T12:38:22.631Z,101454.56
2023-06-26T12:41:27.549Z,101452.91
2023-06-26T12:44:34.001Z,101462.91
2023-06-26T12:47:39.601Z,101445.41
2023-06-26T12:50:49.120Z,101459.88
2023-06-26T12:53:53.383Z,101468.28
2023-06-26T12:56:57.333Z,101458.81
2023-06-26T13:00:01.681Z,101450.88
2023-06-26T13:03:09.259Z,101461.16
2023-06-26T13:06:16.355Z,101453.47
2023-06-26T13:09:20.282Z,101450.75
2023-06-26T13:12:24.119Z,101451.72
2023-06-26T13:15:28.197Z,101448.09
2023-06-26T13:18:31.884Z,101444.75
2023-06-26T13:21:38.066Z,101449.03
2023-06-26T13:24:42.324Z,101459.00
2023-06-26T13:27:46.158Z,101450.13
2023-06-26T13:30:50.512Z,101461.81
2023-06-26T13:33:54.626Z,101473.09
2023-06-26T13:37:02.127Z,101471.19
2023-06-26T13:40:10.616Z,101473.00
2023-06-26T13:43:15.168Z,101480.66
2023-06-26T13:46:21.610Z,101462.44
2023-06-26T13:49:25.402Z,101458.56
2023-06-26T13:52:30.583Z,101464.91
2023-06-26T13:55:35.051Z,101466.09
2023-06-26T13:58:39.750Z,101484.38
2023-06-26T14:01:45.285Z,101478.13
2023-06-26T14:04:49.150Z,101470.84
2023-06-26T14:07:56.047Z,101488.41
2023-06-26T14:11:02.359Z,101486.97
2023-06-26T14:14:06.189Z,101487.72
2023-06-26T14:17:11.869Z,101500.59
2023-06-26T14:20:15.905Z,101500.72
2023-06-26T14:23:21.086Z,101480.44
2023-06-26T14:26:24.844Z,101487.97
2023-06-26T14:29:28.553Z,101502.28
2023-06-26T14:32:32.425Z,101502.34
2023-06-26T14:35:36.949Z,101505.00
2023-06-26T14:38:42.010Z,101520.38
2023-06-26T14:41:47.513Z,101522.06
2023-06-26T14:44:52.723Z,101519.09
2023-06-26T14:47:57.101Z,101532.84
2023-06-26T14:51:02.131Z,101534.03
2023-06-26T14:54:07.361Z,101533.59
2023-06-26T14:57:12.243Z,101525.28
2023-06-26T15:00:18.257Z,101535.19
2023-06-26T15:03:22.083Z,101527.41
2023-06-26T15:06:25.998Z,101529.41
2023-06-26T15:09:33.168Z,101515.13
2023-06-26T15:12:37.313Z,101528.59
2023-06-26T15:15:52.737Z,101530.66
2023-06-26T15:18:56.556Z,101533.97
2023-06-26T15:22:00.234Z,101532.78
2023-06-26T15:25:06.559Z,101535.78
2023-06-26T15:28:10.834Z,101545.31
2023-06-26T15:31:16.242Z,101537.03
2023-06-26T15:34:19.883Z,101536.63
2023-06-26T15:37:23.591Z,101536.22
2023-06-26T15:40:28.726Z,101538.41
2023-06-26T15:43:33.789Z,101543.81
2023-06-26T15:46:37.576Z,101538.06
2023-06-26T15:49:41.495Z,101534.81
2023-06-26T15:52:45.334Z,101551.03
2023-06-26T15:55:50.595Z,101541.97
2023-06-26T15:58:54.280Z,101545.81
2023-06-26T16:01:58.089Z,101544.91
2023-06-26T16:05:02.665Z,101556.94
2023-06-26T16:08:07.251Z,101554.38
2023-06-26T16:11:12.669Z,101559.75
2023-06-26T16:14:16.941Z,101562.72
2023-06-26T16:17:20.632Z,101563.66
2023-06-26T16:20:24.603Z,101568.56
2023-06-26T16:23:28.783Z,101566.44
2023-06-26T16:26:34.095Z,101552.34
2023-06-26T16:29:37.863Z,101560.44
2023-06-26T16:32:41.584Z,101570.16
2023-06-26T16:35:45.835Z,101562.91
2023-06-26T16:38:49.769Z,101559.38
2023-06-26T16:41:56.218Z,101570.28
2023-06-26T16:45:00.326Z,101567.63
2023-06-26T16:48:04.280Z,101572.31
2023-06-26T16:51:08.775Z,101569.41
2023-06-26T16:54:12.539Z,101586.84
2023-06-26T16:57:17.760Z,101575.19
2023-06-26T17:00:21.915Z,101577.00
2023-06-26T17:03:25.710Z,101579.13
2023-06-26T17:06:30.064Z,101582.00
2023-06-26T17:09:33.878Z,101583.97
2023-06-26T17:12:40.687Z,101597.00
2023-06-26T17:15:51.459Z,101603.66
2023-06-26T17:18:55.198Z,101605.19
2023-06-26T17:22:00.035Z,101600.22
2023-06-26T17:25:05.734Z,101604.22
2023-06-26T17:28:10.971Z,101604.63
2023-06-26T17:31:14.793Z,101612.78
2023-06-26T17:34:18.461Z,101608.81
2023-06-26T17:37:24.597Z,101612.59
2023-06-26T17:40:28.291Z,101611.00
2023-06-26T17:43:33.488Z,101618.50
2023-06-26T17:46:37.392Z,101617.94
2023-06-26T17:49:41.650Z,101619.25
2023-06-26T17:52:45.403Z,101628.50
2023-06-26T17:55:49.208Z,101634.28
2023-06-26T17:58:54.222Z,101637.06
2023-06-26T18:02:00.076Z,101649.63
2023-06-26T18:05:04.023Z,101642.38
2023-06-26T18:08:07.943Z,101652.03
2023-06-26T18:11:11.590Z,101663.88
2023-06-26T18:14:17.105Z,101671.28
2023-06-26T18:17:20.824Z,101669.81
2023-06-26T18:20:24.786Z,101659.88
2023-06-26T18:23:28.502Z,101661.66
2023-06-26T18:26:33.883Z,101659.59
2023-06-26T18:29:39.849Z,101673.03
2023-06-26T18:32:45.585Z,101670.28
2023-06-26T18:35:49.258Z,101676.81
2023-06-26T18:38:52.990Z,101679.63
2023-06-26T18:41:56.695Z,101677.66
2023-06-26T18:45:01.669Z,101665.66
2023-06-26T18:48:06.462Z,101665.47
2023-06-26T18:51:12.973Z,101664.84
2023-06-26T18:54:18.446Z,101667.19
2023-06-26T18:57:22.237Z,101669.75
2023-06-26T19:00:29.281Z,101670.28
2023-06-26T19:03:33.012Z,101667.19
2023-06-26T19:06:36.763Z,101671.03
2023-06-26T19:09:40.419Z,101669.41
2023-06-26T19:12:44.569Z,101673.47
2023-06-26T19:15:50.646Z,101675.59
2023-06-26T19:18:55.327Z,101682.34
2023-06-26T19:22:00.159Z,101686.25
2023-06-26T19:25:04.205Z,101685.75
2023-06-26T19:28:07.900Z,101689.63
2023-06-26T19:31:13.509Z,101688.94
2023-06-26T19:34:17.206Z,101705.41
2023-06-26T19:37:20.842Z,101697.84
2023-06-26T19:40:24.901Z,101706.34
2023-06-26T19:43:28.541Z,101706.13
2023-06-26T19:46:33.660Z,101711.75
2023-06-26T19:49:37.976Z,101713.75
2023-06-26T19:52:42.696Z,101719.63
2023-06-26T19:55:46.455Z,101724.41
2023-06-26T19:58:50.011Z,101730.78
2023-06-26T20:01:55.101Z,101721.69
2023-06-26T20:04:58.922Z,101732.47
2023-06-26T20:08:03.705Z,101736.41
2023-06-26T20:11:08.238Z,101737.72
2023-06-26T20:14:11.910Z,101739.13
2023-06-26T20:17:17.074Z,101745.50
2023-06-26T20:20:20.844Z,101758.25
2023-06-26T20:23:24.507Z,101750.19
2023-06-26T20:26:28.222Z,101757.19
2023-06-26T20:29:32.240Z,101760.97
2023-06-26T20:32:37.745Z,101759.97
2023-06-26T20:35:42.039Z,101756.81
2023-06-26T20:38:45.908Z,101764.75
2023-06-26T20:41:50.529Z,101768.91
2023-06-26T20:44:58.253Z,101759.44
2023-06-26T20:48:04.194Z,101773.72
2023-06-26T20:51:08.976Z,101766.13
2023-06-26T20:54:13.856Z,101766.25
2023-06-26T20:57:18.402Z,101772.66
2023-06-26T21:00:24.779Z,101779.97
2023-06-26T21:03:30.242Z,101771.94
2023-06-26T21:06:33.979Z,101772.00
2023-06-26T21:09:37.758Z,101776.44
2023-06-26T21:12:41.512Z,101780.72
2023-06-26T21:15:45.845Z,101774.50
2023-06-26T21:18:50.949Z,101778.19
2023-06-26T21:21:55.034Z,101783.63
2023-06-26T21:24:58.721Z,101778.72
2023-06-26T21:28:02.422Z,101777.78
2023-06-26T21:31:06.198Z,101780.00
2023-06-26T21:34:12.321Z,101780.13
2023-06-26T21:37:16.166Z,101785.47
2023-06-26T21:40:19.860Z,101778.34
2023-06-26T21:43:23.517Z,101793.47
2023-06-26T21:46:27.284Z,101789.59
2023-06-26T21:49:33.350Z,101795.75
2023-06-26T21:52:37.498Z,101790.53
2023-06-26T21:55:41.429Z,101795.25
2023-06-26T21:58:45.596Z,101797.00
2023-06-26T22:01:49.339Z,101801.53
2023-06-26T22:04:54.408Z,101791.56
2023-06-26T22:07:58.275Z,101799.38
2023-06-26T22:11:02.039Z,101804.91
2023-06-26T22:14:05.898Z,101801.16
2023-06-26T22:17:09.639Z,101804.78
2023-06-26T22:20:16.480Z,101797.63
2023-06-26T22:23:20.208Z,101798.84
2023-06-26T22:26:23.994Z,101800.47
2023-06-26T22:29:27.594Z,101794.53
2023-06-26T22:32:31.308Z,101795.75
2023-06-26T22:35:36.470Z,101797.63
2023-06-26T22:38:40.124Z,101798.41
2023-06-26T22:41:44.359Z,101804.59
2023-06-26T22:44:47.958Z,101801.22
2023-06-26T22:47:51.801Z,101792.09
2023-06-26T22:50:58.119Z,101804.13
2023-06-26T22:54:02.219Z,101797.09
2023-06-26T22:57:06.764Z,101800.66
2023-06-26T23:00:12.283Z,101792.13
2023-06-26T23:03:16.013Z,101795.47
2023-06-26T23:06:23.085Z,101796.50
2023-06-26T23:09:26.836Z,101793.75
2023-06-26T23:12:30.685Z,101792.97
2023-06-26T23:15:40.555Z,101798.44
2023-06-26T23:18:44.636Z,101793.16
2023-06-26T23:21:49.659Z,101796.16
2023-06-26T23:24:58.729Z,101796.59
2023-06-26T23:28:04.126Z,101791.91
2023-06-26T23:31:07.891Z,101798.19
2023-06-26T23:34:13.889Z,101798.88
2023-06-26T23:37:27.167Z,101796.47
2023-06-26T23:40:33.462Z,101793.84
2023-06-26T23:43:37.426Z,101794.09
2023-06-26T23:46:42.770Z,101797.72
2023-06-26T23:49:46.545Z,101797.25
2023-06-26T23:52:51.605Z,101794.31
2023-06-26T23:55:55.299Z,101798.75
2023-06-26T23:58:59.413Z,101802.28
